Time;durP1;ratioP1;P1;durP2;ratioP2;P2;SDS_P1;SDS_P2;PMS_P1;PMS_P2;Temp;Humidity;BMP_temperature;BMP_pressure;BME280_temperature;BME280_humidity;BME280_pressure;Samples;Min_cycle;Max_cycle;Signal;HPM_P1;HPM_P2
2022/03/24 00:00:37;;;;;;;;;;;22.50;26.20;;;;;;4834653;29;19980;-65
2022/03/24 00:03:06;;;;;;;;;;;22.50;26.20;;;;;;4835430;29;20001;-65
2022/03/24 00:05:33;;;;;;;;;;;22.40;26.20;;;;;;4836064;29;19937;-64
2022/03/24 00:08:00;;;;;;;;;;;22.40;26.10;;;;;;4835675;29;20011;-65
2022/03/24 00:10:27;;;;;;;;;;;22.40;26.20;;;;;;4835754;29;20497;-65
2022/03/24 00:12:55;;;;;;;;;;;22.40;26.10;;;;;;4835617;29;20426;-65
2022/03/24 00:15:22;;;;;;;;;;;22.40;26.10;;;;;;4836152;29;20266;-64
2022/03/24 00:17:49;;;;;;;;;;;22.40;26.20;;;;;;4835721;29;20027;-65
2022/03/24 00:20:17;;;;;;;;;;;22.40;26.20;;;;;;4835084;29;20063;-64
2022/03/24 00:22:44;;;;;;;;;;;22.40;26.20;;;;;;4835485;29;20039;-64
2022/03/24 00:25:11;;;;;;;;;;;22.40;26.20;;;;;;4835715;29;20008;-65
2022/03/24 00:27:39;;;;;;;;;;;22.30;26.20;;;;;;4833691;29;19986;-64
2022/03/24 00:30:08;;;;;;;;;;;22.40;26.20;;;;;;4829585;29;19979;-65
2022/03/24 00:32:35;;;;;;;;;;;22.40;26.20;;;;;;4816696;29;20473;-65
2022/03/24 00:35:03;;;;;;;;;;;22.30;26.20;;;;;;4818449;29;20023;-65
2022/03/24 00:37:31;;;;;;;;;;;22.30;26.20;;;;;;4834077;29;19976;-65
2022/03/24 00:40:06;;;;;;;;;;;22.30;26.20;;;;;;4820830;29;19929;-65
2022/03/24 00:42:36;;;;;;;;;;;22.30;26.20;;;;;;4820238;29;19993;-65
2022/03/24 00:45:05;;;;;;;;;;;22.30;26.20;;;;;;4820224;29;19933;-65
2022/03/24 00:47:34;;;;;;;;;;;22.30;26.20;;;;;;4820837;29;20011;-64
2022/03/24 00:50:07;;;;;;;;;;;22.30;26.20;;;;;;4819864;29;19935;-65
2022/03/24 00:52:41;;;;;;;;;;;22.30;26.20;;;;;;4820103;29;20303;-65
2022/03/24 00:55:11;;;;;;;;;;;22.30;26.20;;;;;;4834735;29;19979;-64
2022/03/24 00:57:39;;;;;;;;;;;22.30;26.30;;;;;;4828124;29;20027;-64
2022/03/24 01:00:07;;;;;;;;;;;22.30;26.20;;;;;;4834355;29;20019;-64
2022/03/24 01:02:37;;;;;;;;;;;22.30;26.20;;;;;;4825451;29;20020;-64
2022/03/24 01:05:06;;;;;;;;;;;22.30;26.20;;;;;;4829574;29;19928;-65
2022/03/24 01:07:34;;;;;;;;;;;22.30;26.20;;;;;;4827747;29;20305;-64
2022/03/24 01:10:01;;;;;;;;;;;22.30;26.20;;;;;;4838705;29;20016;-64
2022/03/24 01:12:28;;;;;;;;;;;22.30;26.20;;;;;;4825440;29;19976;-64
2022/03/24 01:14:56;;;;;;;;;;;22.30;26.20;;;;;;4819079;29;19975;-65
2022/03/24 01:17:25;;;;;;;;;;;22.30;26.20;;;;;;4820340;29;19932;-65
2022/03/24 01:19:52;;;;;;;;;;;22.30;26.20;;;;;;4819937;29;20037;-64
2022/03/24 01:22:19;;;;;;;;;;;22.30;26.20;;;;;;4819804;29;20410;-64
2022/03/24 01:24:46;;;;;;;;;;;22.30;26.20;;;;;;4832048;29;20239;-65
2022/03/24 01:27:15;;;;;;;;;;;22.30;26.20;;;;;;4837550;29;20461;-66
2022/03/24 01:29:42;;;;;;;;;;;22.30;26.20;;;;;;4838768;29;19997;-65
2022/03/24 01:32:10;;;;;;;;;;;22.30;26.20;;;;;;4832508;29;19986;-65
2022/03/24 01:34:38;;;;;;;;;;;22.30;26.20;;;;;;4830118;29;19971;-65
2022/03/24 01:37:08;;;;;;;;;;;22.20;26.20;;;;;;4834171;29;19928;-65
2022/03/24 01:39:35;;;;;;;;;;;22.20;26.20;;;;;;4834368;29;19929;-65
2022/03/24 01:42:02;;;;;;;;;;;22.20;26.20;;;;;;4820257;29;20012;-65
2022/03/24 01:44:29;;;;;;;;;;;22.20;26.20;;;;;;4819011;29;20439;-65
2022/03/24 01:46:59;;;;;;;;;;;22.20;26.20;;;;;;4818155;29;20028;-65
2022/03/24 01:49:28;;;;;;;;;;;22.20;26.20;;;;;;4818744;29;19994;-65
2022/03/24 01:51:55;;;;;;;;;;;22.20;26.20;;;;;;4823700;29;19933;-65
2022/03/24 01:54:23;;;;;;;;;;;22.20;26.20;;;;;;4837600;29;19983;-65
2022/03/24 01:56:51;;;;;;;;;;;22.20;26.20;;;;;;4837648;29;20412;-65
2022/03/24 01:59:19;;;;;;;;;;;22.20;26.20;;;;;;4838018;29;20397;-65
2022/03/24 02:01:46;;;;;;;;;;;22.20;26.20;;;;;;4837314;29;19928;-65
2022/03/24 02:04:14;;;;;;;;;;;22.20;26.20;;;;;;4832743;29;19951;-65
2022/03/24 02:06:41;;;;;;;;;;;22.20;26.30;;;;;;4835601;29;20428;-69
2022/03/24 02:09:08;;;;;;;;;;;22.20;26.20;;;;;;4836840;29;20011;-65
2022/03/24 02:11:35;;;;;;;;;;;22.20;26.30;;;;;;4837869;29;20032;-65
2022/03/24 02:14:04;;;;;;;;;;;22.20;26.30;;;;;;4836954;29;20442;-65
2022/03/24 02:16:35;;;;;;;;;;;22.10;26.20;;;;;;4837421;29;20180;-65
2022/03/24 02:19:13;;;;;;;;;;;22.10;26.20;;;;;;4837105;29;19936;-65
2022/03/24 02:21:40;;;;;;;;;;;22.10;26.20;;;;;;4836781;29;20393;-65
2022/03/24 02:24:08;;;;;;;;;;;22.10;26.20;;;;;;4837184;29;20009;-65
2022/03/24 02:26:36;;;;;;;;;;;22.10;26.20;;;;;;4835928;29;20290;-65
2022/03/24 02:29:07;;;;;;;;;;;22.10;26.20;;;;;;4842377;29;20302;-65
2022/03/24 02:31:37;;;;;;;;;;;22.10;26.20;;;;;;4819250;29;19933;-65
2022/03/24 02:36:52;;;;;;;;;;;22.10;26.20;;;;;;4818775;29;20012;-67
2022/03/24 02:39:19;;;;;;;;;;;22.10;26.20;;;;;;4817987;29;19976;-65
2022/03/24 02:41:49;;;;;;;;;;;22.10;26.20;;;;;;4819044;29;20024;-67
2022/03/24 02:44:17;;;;;;;;;;;22.10;26.20;;;;;;4818588;29;20412;-65
2022/03/24 02:46:47;;;;;;;;;;;22.10;26.30;;;;;;4818823;29;20016;-65
2022/03/24 02:49:19;;;;;;;;;;;22.10;26.30;;;;;;4818605;29;20368;-65
2022/03/24 02:51:46;;;;;;;;;;;22.10;26.30;;;;;;4829703;29;19976;-65
2022/03/24 02:54:13;;;;;;;;;;;22.10;26.30;;;;;;4836151;29;20040;-65
2022/03/24 02:56:42;;;;;;;;;;;22.10;26.30;;;;;;4836260;29;20019;-65
2022/03/24 02:59:10;;;;;;;;;;;22.10;26.30;;;;;;4836915;29;20263;-65
2022/03/24 03:01:41;;;;;;;;;;;22.10;26.30;;;;;;4836328;29;20067;-65
2022/03/24 03:04:09;;;;;;;;;;;22.10;26.30;;;;;;4835450;29;20074;-66
2022/03/24 03:06:39;;;;;;;;;;;22.10;26.30;;;;;;4831678;29;19928;-65
2022/03/24 03:09:06;;;;;;;;;;;22.10;26.30;;;;;;4835766;29;20394;-65
2022/03/24 03:11:33;;;;;;;;;;;22.10;26.30;;;;;;4836805;29;19990;-65
2022/03/24 03:14:01;;;;;;;;;;;22.10;26.30;;;;;;4836130;29;19935;-66
2022/03/24 03:16:28;;;;;;;;;;;22.10;26.30;;;;;;4835643;29;20023;-65
2022/03/24 03:18:55;;;;;;;;;;;22.10;26.20;;;;;;4836277;29;20386;-65
2022/03/24 03:21:22;;;;;;;;;;;22.10;26.30;;;;;;4835445;29;19929;-65
2022/03/24 03:23:49;;;;;;;;;;;22.00;26.20;;;;;;4836777;29;20019;-65
2022/03/24 03:26:17;;;;;;;;;;;22.00;26.20;;;;;;4835994;29;20021;-65
2022/03/24 03:28:44;;;;;;;;;;;22.00;26.20;;;;;;4829357;29;20009;-65
2022/03/24 03:31:11;;;;;;;;;;;22.00;26.70;;;;;;4818350;29;20020;-65
2022/03/24 03:33:38;;;;;;;;;;;22.00;26.20;;;;;;4817917;29;19933;-65
2022/03/24 03:36:05;;;;;;;;;;;22.00;26.20;;;;;;4817840;29;19940;-65
2022/03/24 03:38:33;;;;;;;;;;;22.00;26.30;;;;;;4813293;29;20010;-65
2022/03/24 03:41:02;;;;;;;;;;;22.00;26.30;;;;;;4818156;29;19929;-65
2022/03/24 03:43:29;;;;;;;;;;;22.00;26.20;;;;;;4818078;29;20024;-65
2022/03/24 03:45:56;;;;;;;;;;;22.00;26.30;;;;;;4817749;29;19929;-66
2022/03/24 03:48:24;;;;;;;;;;;22.00;26.30;;;;;;4818523;29;19936;-65
2022/03/24 03:50:51;;;;;;;;;;;22.00;26.30;;;;;;4817057;29;20486;-65
2022/03/24 03:53:18;;;;;;;;;;;22.00;26.30;;;;;;4817859;29;19997;-65
2022/03/24 03:55:45;;;;;;;;;;;22.00;26.30;;;;;;4817755;29;19929;-65
2022/03/24 03:58:12;;;;;;;;;;;22.00;26.40;;;;;;4817710;29;20430;-65
2022/03/24 04:00:56;;;;;;;;;;;21.90;26.30;;;;;;4818168;29;20401;-65
2022/03/24 04:03:28;;;;;;;;;;;21.90;26.40;;;;;;4817274;29;19972;-65
2022/03/24 04:05:57;;;;;;;;;;;21.90;26.40;;;;;;4817627;29;20105;-65
2022/03/24 04:08:24;;;;;;;;;;;22.00;26.50;;;;;;4814919;29;20196;-65
2022/03/24 04:10:52;;;;;;;;;;;21.90;26.50;;;;;;4818063;29;20019;-65
2022/03/24 04:13:19;;;;;;;;;;;21.90;26.50;;;;;;4821312;29;19929;-65
2022/03/24 04:15:46;;;;;;;;;;;21.90;26.60;;;;;;4820663;29;19933;-65
2022/03/24 04:18:13;;;;;;;;;;;21.90;26.60;;;;;;4821305;29;19939;-65
2022/03/24 04:20:40;;;;;;;;;;;21.90;26.60;;;;;;4820437;29;19929;-65
2022/03/24 04:23:08;;;;;;;;;;;21.90;26.60;;;;;;4820738;29;20463;-65
2022/03/24 04:25:35;;;;;;;;;;;21.90;26.60;;;;;;4820053;29;19929;-65
2022/03/24 04:28:03;;;;;;;;;;;21.90;26.70;;;;;;4819856;29;19964;-65
2022/03/24 04:30:31;;;;;;;;;;;21.90;26.70;;;;;;4820910;29;19933;-65
2022/03/24 04:32:58;;;;;;;;;;;21.90;26.70;;;;;;4823281;29;19968;-66
2022/03/24 04:35:26;;;;;;;;;;;21.90;26.80;;;;;;4833727;29;19928;-65
2022/03/24 04:37:53;;;;;;;;;;;21.90;26.80;;;;;;4838787;29;19929;-65
2022/03/24 04:40:20;;;;;;;;;;;21.90;26.80;;;;;;4822824;29;19976;-65
2022/03/24 04:42:52;;;;;;;;;;;21.90;26.80;;;;;;4831747;29;20015;-65
2022/03/24 04:45:20;;;;;;;;;;;21.90;26.80;;;;;;4830689;29;19983;-65
2022/03/24 04:47:47;;;;;;;;;;;21.90;26.80;;;;;;4827921;29;20011;-65
2022/03/24 04:50:16;;;;;;;;;;;21.90;26.70;;;;;;4836719;29;20031;-65
2022/03/24 04:52:44;;;;;;;;;;;21.90;26.70;;;;;;4838484;29;20215;-65
2022/03/24 04:55:11;;;;;;;;;;;21.90;26.60;;;;;;4838497;29;19979;-66
2022/03/24 04:57:38;;;;;;;;;;;21.90;26.60;;;;;;4838201;29;19929;-65
2022/03/24 05:00:06;;;;;;;;;;;21.90;26.60;;;;;;4839426;29;20023;-65
2022/03/24 05:02:33;;;;;;;;;;;21.90;26.50;;;;;;4838305;29;20072;-65
2022/03/24 05:05:00;;;;;;;;;;;21.90;26.50;;;;;;4838405;29;20421;-65
2022/03/24 05:07:27;;;;;;;;;;;21.90;26.50;;;;;;4838785;29;20280;-65
2022/03/24 05:09:54;;;;;;;;;;;22.00;26.50;;;;;;4837899;29;20023;-65
2022/03/24 05:12:21;;;;;;;;;;;21.90;26.50;;;;;;4827327;29;20435;-65
2022/03/24 05:14:48;;;;;;;;;;;22.00;26.50;;;;;;4828513;29;20015;-66
2022/03/24 05:17:16;;;;;;;;;;;22.00;26.50;;;;;;4831651;29;19997;-65
2022/03/24 05:19:47;;;;;;;;;;;22.00;26.50;;;;;;4828476;29;20011;-65
2022/03/24 05:22:16;;;;;;;;;;;22.00;26.50;;;;;;4826514;29;20279;-65
2022/03/24 05:24:43;;;;;;;;;;;22.00;26.50;;;;;;4829842;29;19935;-65
2022/03/24 05:27:10;;;;;;;;;;;22.00;26.50;;;;;;4834793;29;19936;-65
2022/03/24 05:29:38;;;;;;;;;;;22.00;26.50;;;;;;4828763;29;20112;-65
2022/03/24 05:32:05;;;;;;;;;;;22.00;26.50;;;;;;4825950;29;19929;-65
2022/03/24 05:34:32;;;;;;;;;;;22.00;26.50;;;;;;4827402;29;19944;-65
2022/03/24 05:37:00;;;;;;;;;;;22.00;26.50;;;;;;4823412;29;19976;-65
2022/03/24 05:39:27;;;;;;;;;;;22.00;26.50;;;;;;4819196;29;19929;-65
2022/03/24 05:41:54;;;;;;;;;;;22.00;26.50;;;;;;4836458;29;19932;-65
2022/03/24 05:44:21;;;;;;;;;;;22.00;26.50;;;;;;4833239;29;19928;-65
2022/03/24 05:46:48;;;;;;;;;;;22.00;26.50;;;;;;4827912;29;20402;-66
2022/03/24 05:49:16;;;;;;;;;;;22.00;26.40;;;;;;4826953;29;19933;-65
2022/03/24 05:51:43;;;;;;;;;;;22.10;26.50;;;;;;4828250;29;20344;-65
2022/03/24 05:54:11;;;;;;;;;;;22.10;26.50;;;;;;4826643;29;19988;-65
2022/03/24 05:56:39;;;;;;;;;;;22.10;26.50;;;;;;4832345;29;19960;-65
2022/03/24 05:59:06;;;;;;;;;;;22.10;26.40;;;;;;4828243;29;20362;-65
2022/03/24 06:01:33;;;;;;;;;;;22.10;26.40;;;;;;4837931;29;20326;-65
2022/03/24 06:04:01;;;;;;;;;;;22.10;26.40;;;;;;4829793;29;20321;-66
2022/03/24 06:06:30;;;;;;;;;;;22.10;26.40;;;;;;4823324;29;19983;-65
2022/03/24 06:08:57;;;;;;;;;;;22.10;26.40;;;;;;4832015;29;20460;-65
2022/03/24 06:11:24;;;;;;;;;;;22.20;26.40;;;;;;4829825;29;19932;-65
2022/03/24 06:13:51;;;;;;;;;;;22.10;26.20;;;;;;4826543;29;19941;-65
2022/03/24 06:16:19;;;;;;;;;;;22.10;26.10;;;;;;4840946;29;20275;-69
2022/03/24 06:18:46;;;;;;;;;;;22.10;26.30;;;;;;4826771;29;20382;-66
2022/03/24 06:21:14;;;;;;;;;;;22.20;26.40;;;;;;4829334;29;20008;-66
2022/03/24 06:23:41;;;;;;;;;;;22.20;26.50;;;;;;4832193;29;19936;-67
2022/03/24 06:26:08;;;;;;;;;;;22.20;26.50;;;;;;4827977;29;19985;-65
2022/03/24 06:28:36;;;;;;;;;;;22.20;26.50;;;;;;4825874;29;20029;-66
2022/03/24 06:31:05;;;;;;;;;;;22.20;26.50;;;;;;4826045;29;20019;-67
2022/03/24 06:33:32;;;;;;;;;;;22.30;26.50;;;;;;4823892;29;20378;-69
2022/03/24 06:35:59;;;;;;;;;;;22.30;26.50;;;;;;4824881;29;19929;-67
2022/03/24 06:38:27;;;;;;;;;;;22.30;26.40;;;;;;4821024;29;19946;-67
2022/03/24 06:40:54;;;;;;;;;;;22.40;26.50;;;;;;4822187;29;20049;-66
2022/03/24 06:43:22;;;;;;;;;;;22.50;26.50;;;;;;4823950;29;21385;-63
2022/03/24 06:45:50;;;;;;;;;;;22.50;26.50;;;;;;4816968;29;19937;-63
2022/03/24 06:48:17;;;;;;;;;;;22.60;26.60;;;;;;4820226;29;19937;-62
2022/03/24 06:50:44;;;;;;;;;;;22.70;26.40;;;;;;4820374;29;20454;-62
2022/03/24 06:53:12;;;;;;;;;;;22.70;26.30;;;;;;4820341;29;20015;-64
2022/03/24 06:55:39;;;;;;;;;;;22.80;26.20;;;;;;4823353;29;20024;-63
2022/03/24 06:58:06;;;;;;;;;;;22.80;26.10;;;;;;4824174;29;20356;-63
2022/03/24 07:00:34;;;;;;;;;;;22.90;26.10;;;;;;4825672;29;20342;-64
2022/03/24 07:03:01;;;;;;;;;;;23.00;26.00;;;;;;4822973;29;20076;-65
2022/03/24 07:05:28;;;;;;;;;;;23.00;25.90;;;;;;4818848;29;20437;-66
2022/03/24 07:07:55;;;;;;;;;;;23.00;26.00;;;;;;4819476;29;20457;-69
2022/03/24 07:10:22;;;;;;;;;;;23.10;26.20;;;;;;4822753;29;19940;-65
2022/03/24 07:12:50;;;;;;;;;;;23.10;26.50;;;;;;4825315;29;20019;-68
2022/03/24 07:15:17;;;;;;;;;;;23.20;26.70;;;;;;4828013;29;20445;-66
2022/03/24 07:17:44;;;;;;;;;;;23.30;26.80;;;;;;4821047;29;19971;-63
2022/03/24 07:20:11;;;;;;;;;;;23.30;26.70;;;;;;4827453;29;19929;-64
2022/03/24 07:22:38;;;;;;;;;;;23.40;26.60;;;;;;4827672;29;20053;-66
2022/03/24 07:25:06;;;;;;;;;;;23.50;26.70;;;;;;4823729;29;20066;-62
2022/03/24 07:27:34;;;;;;;;;;;23.50;26.70;;;;;;4824888;29;19971;-62
2022/03/24 07:30:02;;;;;;;;;;;23.60;26.80;;;;;;4821818;29;20023;-60
2022/03/24 07:32:29;;;;;;;;;;;23.70;26.80;;;;;;4822878;29;19994;-60
2022/03/24 07:34:56;;;;;;;;;;;23.80;27.20;;;;;;4823527;29;19993;-61
2022/03/24 07:37:24;;;;;;;;;;;23.80;26.70;;;;;;4826284;29;19933;-61
2022/03/24 07:39:51;;;;;;;;;;;23.90;26.80;;;;;;4823392;29;20885;-60
2022/03/24 07:42:18;;;;;;;;;;;24.00;26.70;;;;;;4830422;29;20027;-61
2022/03/24 07:44:45;;;;;;;;;;;24.00;26.50;;;;;;4823102;29;19928;-61
2022/03/24 07:47:12;;;;;;;;;;;24.10;26.60;;;;;;4824528;29;20357;-62
2022/03/24 07:49:40;;;;;;;;;;;24.10;26.50;;;;;;4821166;29;19987;-64
2022/03/24 07:52:12;;;;;;;;;;;24.20;26.50;;;;;;4823320;29;19968;-64
2022/03/24 07:54:44;;;;;;;;;;;24.30;26.50;;;;;;4821296;29;20123;-64
2022/03/24 07:57:11;;;;;;;;;;;24.30;26.40;;;;;;4824574;29;19980;-61
2022/03/24 07:59:39;;;;;;;;;;;24.40;26.20;;;;;;4826418;29;19992;-63
2022/03/24 08:02:07;;;;;;;;;;;24.50;25.90;;;;;;4829455;29;19929;-61
2022/03/24 08:04:34;;;;;;;;;;;24.50;25.80;;;;;;4826754;29;19928;-61
2022/03/24 08:07:01;;;;;;;;;;;24.60;25.90;;;;;;4830577;29;20005;-63
2022/03/24 08:09:31;;;;;;;;;;;24.60;25.90;;;;;;4824197;29;19929;-62
2022/03/24 08:11:59;;;;;;;;;;;24.70;25.90;;;;;;4839859;29;20018;-64
2022/03/24 08:14:26;;;;;;;;;;;24.70;25.80;;;;;;4825381;29;20009;-61
2022/03/24 08:16:53;;;;;;;;;;;24.80;25.80;;;;;;4827828;29;20036;-62
2022/03/24 08:19:21;;;;;;;;;;;24.80;25.80;;;;;;4820485;29;19986;-63
2022/03/24 08:21:48;;;;;;;;;;;24.90;26.20;;;;;;4822958;29;20691;-64
2022/03/24 08:24:16;;;;;;;;;;;24.90;25.90;;;;;;4823692;29;19968;-62
2022/03/24 08:26:43;;;;;;;;;;;24.90;25.80;;;;;;4827434;29;19936;-63
2022/03/24 08:29:10;;;;;;;;;;;25.00;25.60;;;;;;4826031;29;19987;-64
2022/03/24 08:31:36;;;;;;;;;;;25.00;25.60;;;;;;4828731;29;20020;-62
2022/03/24 08:34:04;;;;;;;;;;;25.00;26.10;;;;;;4820834;29;19937;-62
2022/03/24 08:36:32;;;;;;;;;;;25.10;25.50;;;;;;4823304;29;20005;-61
2022/03/24 08:38:59;;;;;;;;;;;25.10;25.50;;;;;;4827913;29;20429;-63
2022/03/24 08:41:26;;;;;;;;;;;25.10;25.50;;;;;;4821692;29;20385;-62
2022/03/24 08:43:53;;;;;;;;;;;25.20;25.40;;;;;;4827493;29;20003;-63
2022/03/24 08:46:24;;;;;;;;;;;25.20;25.10;;;;;;4824351;29;19932;-61
2022/03/24 08:48:53;;;;;;;;;;;25.30;25.00;;;;;;4826422;29;19943;-60
2022/03/24 08:51:22;;;;;;;;;;;25.30;24.90;;;;;;4824858;29;20611;-69
2022/03/24 08:53:49;;;;;;;;;;;25.40;24.90;;;;;;4825024;29;19933;-66
2022/03/24 08:56:16;;;;;;;;;;;25.40;24.80;;;;;;4827223;29;20208;-63
2022/03/24 08:58:44;;;;;;;;;;;25.50;24.90;;;;;;4828663;29;20015;-63
2022/03/24 09:01:12;;;;;;;;;;;25.40;24.90;;;;;;4845234;29;20770;-61
2022/03/24 09:03:39;;;;;;;;;;;25.50;24.90;;;;;;4829601;29;19929;-63
2022/03/24 09:06:07;;;;;;;;;;;25.50;24.80;;;;;;4825055;29;20221;-63
2022/03/24 09:08:34;;;;;;;;;;;25.50;24.80;;;;;;4826440;29;20271;-61
2022/03/24 09:11:02;;;;;;;;;;;25.50;24.80;;;;;;4827837;29;19976;-65
2022/03/24 09:13:30;;;;;;;;;;;25.40;24.80;;;;;;4831009;29;20464;-61
2022/03/24 09:15:57;;;;;;;;;;;25.50;24.90;;;;;;4828434;29;20057;-61
2022/03/24 09:18:24;;;;;;;;;;;25.40;24.90;;;;;;4830242;29;19943;-61
2022/03/24 09:20:51;;;;;;;;;;;25.40;24.90;;;;;;4820742;29;19958;-63
2022/03/24 09:23:19;;;;;;;;;;;25.40;24.80;;;;;;4821529;29;20216;-63
2022/03/24 09:25:46;;;;;;;;;;;25.40;24.70;;;;;;4826120;29;20409;-69
2022/03/24 09:28:12;;;;;;;;;;;25.40;24.80;;;;;;4826223;29;19937;-64
2022/03/24 09:30:41;;;;;;;;;;;25.40;24.70;;;;;;4825411;29;20438;-65
2022/03/24 09:33:08;;;;;;;;;;;25.40;24.70;;;;;;4826998;29;20360;-64
2022/03/24 09:35:36;;;;;;;;;;;25.40;24.70;;;;;;4830616;29;19986;-62
2022/03/24 09:38:04;;;;;;;;;;;25.40;24.60;;;;;;4826847;29;20028;-60
2022/03/24 09:40:31;;;;;;;;;;;25.40;24.60;;;;;;4831532;29;19980;-60
2022/03/24 09:43:00;;;;;;;;;;;25.40;24.70;;;;;;4828268;29;19972;-61
2022/03/24 09:45:27;;;;;;;;;;;25.40;24.70;;;;;;4827654;29;20355;-64
2022/03/24 09:47:54;;;;;;;;;;;25.40;24.70;;;;;;4829479;29;19937;-61
2022/03/24 09:50:24;;;;;;;;;;;25.40;24.70;;;;;;4826003;29;19974;-60
2022/03/24 09:52:52;;;;;;;;;;;25.40;24.60;;;;;;4827092;29;20453;-62
2022/03/24 09:55:20;;;;;;;;;;;25.40;24.60;;;;;;4823207;29;19975;-61
2022/03/24 09:57:47;;;;;;;;;;;25.40;24.60;;;;;;4830089;29;19935;-63
2022/03/24 10:00:35;;;;;;;;;;;25.40;24.50;;;;;;4829255;29;19928;-61
2022/03/24 10:03:14;;;;;;;;;;;25.40;24.50;;;;;;4826447;29;19937;-60
2022/03/24 10:05:57;;;;;;;;;;;25.40;24.50;;;;;;4828134;29;20390;-64
2022/03/24 10:08:25;;;;;;;;;;;25.40;24.50;;;;;;4824296;29;19932;-65
2022/03/24 10:11:03;;;;;;;;;;;25.40;24.50;;;;;;4828857;29;20023;-62
2022/03/24 10:13:51;;;;;;;;;;;25.40;24.80;;;;;;4830586;29;20064;-61
2022/03/24 10:16:40;;;;;;;;;;;25.40;25.00;;;;;;4827742;29;19937;-60
2022/03/24 10:19:12;;;;;;;;;;;25.50;25.10;;;;;;4826557;29;19940;-63
2022/03/24 10:21:41;;;;;;;;;;;25.50;25.30;;;;;;4827666;29;19988;-61
2022/03/24 10:24:11;;;;;;;;;;;25.50;25.20;;;;;;4825026;29;19996;-62
2022/03/24 10:26:55;;;;;;;;;;;25.50;25.30;;;;;;4826733;29;19993;-67
2022/03/24 10:29:23;;;;;;;;;;;25.60;25.30;;;;;;4828569;29;21595;-62
2022/03/24 10:31:53;;;;;;;;;;;25.50;25.10;;;;;;4825321;29;19971;-61
2022/03/24 10:34:40;;;;;;;;;;;25.60;25.10;;;;;;4822959;29;20036;-63
2022/03/24 10:37:12;;;;;;;;;;;25.60;25.10;;;;;;4824275;29;19967;-62
2022/03/24 10:39:54;;;;;;;;;;;25.60;25.00;;;;;;4825658;29;20366;-62
2022/03/24 10:42:23;;;;;;;;;;;25.60;25.00;;;;;;4828601;29;20559;-65
2022/03/24 10:45:04;;;;;;;;;;;25.70;25.10;;;;;;4829317;29;20641;-61
2022/03/24 10:47:35;;;;;;;;;;;25.70;25.10;;;;;;4822592;29;19932;-65
2022/03/24 10:50:22;;;;;;;;;;;25.70;25.00;;;;;;4829249;29;19932;-64
2022/03/24 10:52:51;;;;;;;;;;;25.70;24.90;;;;;;4829528;29;19928;-61
2022/03/24 10:55:33;;;;;;;;;;;25.70;24.70;;;;;;4823371;29;19971;-64
2022/03/24 10:58:01;;;;;;;;;;;25.80;24.80;;;;;;4825559;29;20039;-62
2022/03/24 11:00:29;;;;;;;;;;;25.70;24.60;;;;;;4823698;29;19936;-62
2022/03/24 11:02:57;;;;;;;;;;;25.80;24.60;;;;;;4828217;29;19937;-61
2022/03/24 11:05:25;;;;;;;;;;;25.80;24.40;;;;;;4826497;29;19969;-63
2022/03/24 11:07:56;;;;;;;;;;;25.80;24.40;;;;;;4826819;29;19932;-64
2022/03/24 11:10:23;;;;;;;;;;;25.80;24.10;;;;;;4825022;29;20381;-65
2022/03/24 11:12:52;;;;;;;;;;;25.80;24.20;;;;;;4842212;29;19928;-62
2022/03/24 11:15:20;;;;;;;;;;;25.80;23.90;;;;;;4824645;29;19976;-63
2022/03/24 11:17:47;;;;;;;;;;;25.80;23.70;;;;;;4829583;29;19936;-62
2022/03/24 11:20:22;;;;;;;;;;;25.80;23.50;;;;;;4830983;29;19975;-63
2022/03/24 11:23:00;;;;;;;;;;;25.80;23.60;;;;;;4829583;29;20015;-62
2022/03/24 11:25:28;;;;;;;;;;;25.80;23.30;;;;;;4828311;29;20019;-62
2022/03/24 11:27:55;;;;;;;;;;;25.70;23.40;;;;;;4826127;29;20768;-62
2022/03/24 11:30:23;;;;;;;;;;;25.70;23.10;;;;;;4826228;29;20398;-62
2022/03/24 11:32:52;;;;;;;;;;;25.70;23.00;;;;;;4827245;29;19966;-63
2022/03/24 11:35:20;;;;;;;;;;;25.70;22.80;;;;;;4825628;29;20037;-65
2022/03/24 11:37:48;;;;;;;;;;;25.70;23.00;;;;;;4830017;29;19936;-63
2022/03/24 11:40:26;;;;;;;;;;;25.70;23.00;;;;;;4822673;29;20355;-63
2022/03/24 11:43:00;;;;;;;;;;;25.70;23.00;;;;;;4821967;29;19977;-65
2022/03/24 11:45:29;;;;;;;;;;;25.70;23.10;;;;;;4826264;29;20017;-61
2022/03/24 11:48:10;;;;;;;;;;;25.70;22.70;;;;;;4829952;29;19985;-61
2022/03/24 11:50:52;;;;;;;;;;;25.70;22.80;;;;;;4825878;29;19933;-63
2022/03/24 11:53:32;;;;;;;;;;;25.70;23.00;;;;;;4825251;29;19932;-62
2022/03/24 11:56:18;;;;;;;;;;;25.70;23.20;;;;;;4823912;29;20463;-59
2022/03/24 11:59:06;;;;;;;;;;;25.70;23.10;;;;;;4819778;29;21327;-65
2022/03/24 12:01:33;;;;;;;;;;;25.70;21.50;;;;;;4822886;29;20317;-71
2022/03/24 12:04:08;;;;;;;;;;;25.70;21.60;;;;;;4821399;29;19936;-67
2022/03/24 12:06:51;;;;;;;;;;;25.70;21.60;;;;;;4824362;29;20090;-68
2022/03/24 12:09:21;;;;;;;;;;;25.70;21.90;;;;;;4822642;29;20405;-72
2022/03/24 12:12:04;;;;;;;;;;;25.70;22.00;;;;;;4826891;29;19984;-66
2022/03/24 12:14:36;;;;;;;;;;;25.70;22.00;;;;;;4826833;29;19979;-66
2022/03/24 12:17:07;;;;;;;;;;;25.70;22.10;;;;;;4826680;29;20351;-65
2022/03/24 12:19:42;;;;;;;;;;;25.70;22.30;;;;;;4826306;29;19933;-65
2022/03/24 12:22:29;;;;;;;;;;;25.70;22.20;;;;;;4829128;29;20302;-65
2022/03/24 12:25:17;;;;;;;;;;;25.70;22.00;;;;;;4823851;29;19929;-71
2022/03/24 12:27:55;;;;;;;;;;;25.70;21.90;;;;;;4836271;29;20378;-65
2022/03/24 12:30:24;;;;;;;;;;;25.70;21.90;;;;;;4827406;29;19935;-67
2022/03/24 12:33:02;;;;;;;;;;;25.70;21.90;;;;;;4830067;29;20015;-65
2022/03/24 12:35:40;;;;;;;;;;;25.70;19.60;;;;;;4826673;29;20350;-64
2022/03/24 12:38:28;;;;;;;;;;;25.60;19.70;;;;;;4828221;29;20393;-65
2022/03/24 12:41:17;;;;;;;;;;;25.60;19.90;;;;;;4828594;29;20351;-64
2022/03/24 12:43:46;;;;;;;;;;;25.60;20.30;;;;;;4842495;29;19928;-68
2022/03/24 12:46:23;;;;;;;;;;;25.60;20.70;;;;;;4829578;29;20001;-66
2022/03/24 12:48:50;;;;;;;;;;;25.60;20.80;;;;;;4830176;29;19955;-67
2022/03/24 12:51:25;;;;;;;;;;;25.60;21.10;;;;;;4829192;29;19987;-65
2022/03/24 12:53:57;;;;;;;;;;;25.60;21.20;;;;;;4831567;29;20019;-69
2022/03/24 12:56:26;;;;;;;;;;;25.70;21.30;;;;;;4827693;29;20676;-68
2022/03/24 12:58:58;;;;;;;;;;;25.70;21.20;;;;;;4826000;29;19936;-67
2022/03/24 13:01:25;;;;;;;;;;;25.70;21.40;;;;;;4828469;29;19976;-69
2022/03/24 13:03:57;;;;;;;;;;;25.70;21.30;;;;;;4832472;29;19935;-68
2022/03/24 13:06:24;;;;;;;;;;;25.80;21.70;;;;;;4825320;29;19936;-68
2022/03/24 13:09:11;;;;;;;;;;;25.70;21.70;;;;;;4827959;29;20389;-68
2022/03/24 13:12:00;;;;;;;;;;;25.70;21.60;;;;;;4832186;29;20032;-67
2022/03/24 13:14:27;;;;;;;;;;;25.80;21.60;;;;;;4828346;29;19968;-68
2022/03/24 13:17:05;;;;;;;;;;;25.70;21.50;;;;;;4841726;29;20230;-65
2022/03/24 13:19:33;;;;;;;;;;;25.70;21.80;;;;;;4843294;29;20402;-67
2022/03/24 13:22:19;;;;;;;;;;;25.80;21.80;;;;;;4828396;29;19928;-65
2022/03/24 13:25:00;;;;;;;;;;;25.80;21.90;;;;;;4826630;29;19972;-64
2022/03/24 13:27:35;;;;;;;;;;;25.80;21.90;;;;;;4830913;29;19928;-67
2022/03/24 13:30:04;;;;;;;;;;;25.80;22.00;;;;;;4841241;29;19937;-64
2022/03/24 13:32:31;;;;;;;;;;;25.80;21.90;;;;;;4829085;29;19966;-65
2022/03/24 13:35:00;;;;;;;;;;;25.80;21.90;;;;;;4829879;29;19932;-67
2022/03/24 13:37:31;;;;;;;;;;;25.80;21.90;;;;;;4827041;29;20000;-69
2022/03/24 13:39:59;;;;;;;;;;;25.80;21.80;;;;;;4830682;29;19928;-73
2022/03/24 13:42:26;;;;;;;;;;;25.90;22.00;;;;;;4830524;29;19928;-69
2022/03/24 13:44:55;;;;;;;;;;;25.90;22.10;;;;;;4824727;29;20013;-68
2022/03/24 13:47:25;;;;;;;;;;;25.90;21.80;;;;;;4843277;29;20020;-73
2022/03/24 13:49:54;;;;;;;;;;;25.90;21.60;;;;;;4828990;29;19928;-73
2022/03/24 13:52:41;;;;;;;;;;;26.00;21.80;;;;;;4835031;29;19932;-69
2022/03/24 13:55:16;;;;;;;;;;;26.00;21.80;;;;;;4824656;29;20348;-73
2022/03/24 13:57:44;;;;;;;;;;;26.00;21.80;;;;;;4830435;29;20193;-68
2022/03/24 14:00:12;;;;;;;;;;;26.00;21.60;;;;;;4828525;29;20038;-73
2022/03/24 14:02:39;;;;;;;;;;;26.00;21.50;;;;;;4829326;29;19961;-71
2022/03/24 14:05:09;;;;;;;;;;;26.00;21.50;;;;;;4830193;29;19936;-71
2022/03/24 14:07:56;;;;;;;;;;;26.00;21.40;;;;;;4829421;29;19929;-73
2022/03/24 14:10:41;;;;;;;;;;;25.90;21.20;;;;;;4820452;29;19940;-68
2022/03/24 14:13:11;;;;;;;;;;;26.00;21.40;;;;;;4823227;29;19936;-68
2022/03/24 14:15:38;;;;;;;;;;;25.90;21.30;;;;;;4829604;29;19970;-68
2022/03/24 14:18:16;;;;;;;;;;;26.00;21.30;;;;;;4827872;29;21970;-64
2022/03/24 14:20:44;;;;;;;;;;;26.00;21.30;;;;;;4828608;29;20409;-65
2022/03/24 14:23:23;;;;;;;;;;;26.00;21.20;;;;;;4829257;29;20367;-65
2022/03/24 14:25:59;;;;;;;;;;;26.00;21.10;;;;;;4833161;29;19928;-63
2022/03/24 14:28:31;;;;;;;;;;;26.00;21.30;;;;;;4830142;29;19928;-66
2022/03/24 14:30:58;;;;;;;;;;;26.00;21.40;;;;;;4827801;29;19928;-68
2022/03/24 14:33:27;;;;;;;;;;;26.00;21.40;;;;;;4827583;29;20011;-65